Time;durP1;ratioP1;P1;durP2;ratioP2;P2;SDS_P1;SDS_P2;PMS_P1;PMS_P2;Temp;Humidity;BMP_temperature;BMP_pressure;BME280_temperature;BME280_humidity;BME280_pressure;Samples;Min_cycle;Max_cycle;Signal;HPM_P1;HPM_P2
2021/12/07 00:02:19;;;;;;;6.40;5.17;;;;;;;1.15;100.00;151664.97;5087648;28;20461;-75
2021/12/07 00:04:55;;;;;;;9.23;6.60;;;;;;;1.12;100.00;151655.97;5036219;28;20531;-75
2021/12/07 00:07:31;;;;;;;6.33;5.43;;;;;;;1.11;100.00;151654.66;5065689;28;20449;-75
2021/12/07 00:10:07;;;;;;;7.10;5.87;;;;;;;1.14;99.56;151662.38;5063101;28;20453;-75
2021/12/07 00:12:46;;;;;;;5.70;4.60;;;;;;;1.16;100.00;151667.56;5074056;28;20533;-75
2021/12/07 00:15:23;;;;;;;6.57;5.50;;;;;;;1.18;98.53;151672.69;5103327;28;20807;-75
2021/12/07 00:17:59;;;;;;;5.50;4.73;;;;;;;1.16;99.36;151667.56;5069145;28;20445;-75
2021/12/07 00:20:35;;;;;;;8.47;6.10;;;;;;;1.20;98.85;151677.81;5045134;28;20439;-75
2021/12/07 00:23:11;;;;;;;6.37;4.93;;;;;;;1.25;100.00;151689.34;5067312;28;20469;-75
2021/12/07 00:25:47;;;;;;;5.93;5.13;;;;;;;1.23;99.92;151684.22;5068788;28;20547;-75
2021/12/07 00:28:24;;;;;;;7.67;5.50;;;;;;;1.26;98.06;151690.66;5053459;28;20831;-75
2021/12/07 00:31:09;;;;;;;6.23;5.50;;;;;;;1.28;97.70;151697.06;5032791;28;20472;-75
2021/12/07 00:33:51;;;;;;;6.10;4.90;;;;;;;1.27;99.48;151693.22;5080399;28;20566;-75
2021/12/07 00:36:26;;;;;;;5.70;4.63;;;;;;;1.31;98.74;151703.50;5033561;28;20438;-75
2021/12/07 00:39:02;;;;;;;6.67;5.40;;;;;;;1.35;98.84;151713.78;5036792;28;21007;-75
2021/12/07 00:41:39;;;;;;;7.70;4.87;;;;;;;1.34;99.77;151711.19;5050950;28;20548;-75
2021/12/07 00:44:16;;;;;;;4.60;4.20;;;;;;;1.32;99.44;151707.38;5049704;28;20940;-75
2021/12/07 00:46:52;;;;;;;4.53;4.07;;;;;;;1.36;100.00;151716.31;5085866;28;20446;-75
2021/12/07 00:49:28;;;;;;;5.23;3.90;;;;;;;1.34;100.00;151712.50;5071631;28;20849;-75
2021/12/07 00:52:04;;;;;;;4.93;3.77;;;;;;;1.35;100.00;151713.78;5096291;28;20744;-75
2021/12/07 00:54:40;;;;;;;6.30;4.40;;;;;;;1.32;100.00;151707.38;5070707;28;20661;-75
2021/12/07 00:57:17;;;;;;;5.70;4.23;;;;;;;1.38;100.00;151721.50;5072140;28;20516;-75
2021/12/07 00:59:54;;;;;;;5.60;4.20;;;;;;;1.40;100.00;151727.94;5037706;28;20461;-75
2021/12/07 01:02:29;;;;;;;4.77;3.83;;;;;;;1.41;100.00;151730.47;5087439;28;20462;-75
2021/12/07 01:05:13;;;;;;;4.97;3.87;;;;;;;1.41;100.00;151729.16;5037791;28;20809;-75
2021/12/07 01:08:12;;;;;;;4.47;3.43;;;;;;;1.42;100.00;151733.06;5084499;28;20439;-75
2021/12/07 01:25:15;;;;;;;8.30;4.40;;;;;;;1.21;100.00;151680.41;5068674;28;20450;-75
2021/12/07 01:27:52;;;;;;;5.50;4.00;;;;;;;1.26;100.00;151690.66;5084712;28;20432;-75
2021/12/07 01:30:38;;;;;;;4.87;4.20;;;;;;;1.27;100.00;151693.22;5050842;28;20481;-75
2021/12/07 01:33:33;;;;;;;5.60;3.30;;;;;;;1.23;100.00;151685.53;5055040;28;20432;-75
2021/12/07 01:45:15;;;;;;;4.43;3.80;;;;;;;1.21;100.00;151679.09;5082378;28;20453;-75
2021/12/07 01:48:00;;;;;;;4.70;3.90;;;;;;;1.20;100.00;151677.81;5051600;28;20439;-75
2021/12/07 01:51:01;;;;;;;5.90;4.13;;;;;;;1.21;100.00;151679.09;5053905;28;20434;-75
2021/12/07 01:59:33;;;;;;;5.97;4.20;;;;;;;1.28;100.00;151695.78;5042280;28;20443;-75
2021/12/07 02:02:10;;;;;;;4.13;3.40;;;;;;;1.29;100.00;151698.38;5055609;28;20433;-75
2021/12/07 02:04:46;;;;;;;5.90;4.00;;;;;;;1.32;100.00;151706.06;5055725;28;20782;-75
2021/12/07 02:07:26;;;;;;;5.17;4.20;;;;;;;1.30;100.00;151700.94;5071752;28;20449;-75
2021/12/07 02:10:08;;;;;;;6.60;4.30;;;;;;;1.34;100.00;151712.50;5040389;28;21026;-75
2021/12/07 02:12:46;;;;;;;7.30;4.40;;;;;;;1.31;100.00;151704.78;5039326;28;20465;-75
2021/12/07 02:15:24;;;;;;;5.27;4.00;;;;;;;1.35;100.00;151713.78;5053323;28;20453;-75
2021/12/07 02:18:01;;;;;;;5.17;3.87;;;;;;;1.37;100.00;151718.91;5038933;28;20450;-75
2021/12/07 02:20:36;;;;;;;5.90;4.10;;;;;;;1.38;100.00;151721.50;5057596;28;20444;-75
2021/12/07 02:23:14;;;;;;;4.87;3.43;;;;;;;1.35;100.00;151713.78;5078049;28;20841;-75
2021/12/07 02:25:49;;;;;;;5.27;3.83;;;;;;;1.39;100.00;151724.03;5058076;28;20445;-75
2021/12/07 02:28:25;;;;;;;4.77;3.50;;;;;;;1.41;100.00;151730.47;5047426;28;20478;-75
2021/12/07 02:31:01;;;;;;;5.93;4.03;;;;;;;1.42;100.00;151731.75;5054344;28;20864;-75
2021/12/07 02:33:38;;;;;;;5.13;3.80;;;;;;;1.44;100.00;151736.88;5058936;28;20460;-75
2021/12/07 02:36:14;;;;;;;4.23;3.30;;;;;;;1.44;100.00;151736.88;5092869;28;20476;-75
2021/12/07 02:38:51;;;;;;;7.23;3.40;;;;;;;1.44;100.00;151738.19;5052681;28;20446;-75
2021/12/07 02:41:27;;;;;;;5.70;3.97;;;;;;;1.49;100.00;151749.72;5073821;28;20435;-75
2021/12/07 02:44:05;;;;;;;4.60;3.40;;;;;;;1.50;100.00;151753.63;5054414;28;20971;-75
2021/12/07 02:46:41;;;;;;;5.30;3.60;;;;;;;1.53;100.00;151760.03;5054647;28;20435;-75
2021/12/07 02:49:19;;;;;;;7.20;3.20;;;;;;;1.50;100.00;151753.63;5055843;28;20482;-75
2021/12/07 02:51:55;;;;;;;3.93;3.20;;;;;;;1.52;100.00;151757.44;5073633;28;20480;-75
2021/12/07 02:54:35;;;;;;;4.30;3.53;;;;;;;1.49;100.00;151751.03;5042329;28;20445;-75
2021/12/07 02:57:11;;;;;;;4.73;3.73;;;;;;;1.53;100.00;151761.34;5066970;28;20450;-75
2021/12/07 02:59:56;;;;;;;4.90;3.40;;;;;;;1.58;100.00;151772.88;5072065;28;20446;-75
2021/12/07 03:02:37;;;;;;;3.93;3.07;;;;;;;1.53;100.00;151761.34;5042718;28;20829;-75
2021/12/07 03:05:26;;;;;;;5.10;3.57;;;;;;;1.52;100.00;151757.44;5068958;28;20944;-75
2021/12/07 03:08:26;;;;;;;4.10;3.17;;;;;;;1.55;100.00;151765.16;5071472;28;21147;-75
2021/12/07 03:26:03;;;;;;;4.70;3.43;;;;;;;1.54;100.00;151762.56;5087795;28;20935;-75
2021/12/07 03:28:44;;;;;;;4.57;2.97;;;;;;;1.50;100.00;151752.31;5052428;28;20953;-75
2021/12/07 03:31:25;;;;;;;3.53;3.20;;;;;;;1.51;100.00;151754.91;5052363;28;20466;-75
2021/12/07 03:34:02;;;;;;;5.10;3.17;;;;;;;1.51;100.00;151756.16;5039055;28;20441;-75
2021/12/07 03:36:41;;;;;;;4.43;2.70;;;;;;;1.54;100.00;151762.56;5061612;28;20450;-75
2021/12/07 03:39:16;;;;;;;5.43;3.50;;;;;;;1.55;100.00;151766.47;5053055;28;20435;-75
2021/12/07 03:41:52;;;;;;;4.00;3.07;;;;;;;1.57;100.00;151770.28;5052712;28;20515;-75
2021/12/07 03:44:30;;;;;;;3.83;3.13;;;;;;;1.60;100.00;151778.00;5101663;28;20579;-75
2021/12/07 03:47:06;;;;;;;4.40;3.00;;;;;;;1.60;100.00;151779.31;5057370;28;20449;-75
2021/12/07 03:49:41;;;;;;;5.40;3.40;;;;;;;1.59;100.00;151775.47;5101783;28;20491;-75
2021/12/07 03:52:17;;;;;;;3.93;3.00;;;;;;;1.59;100.00;151775.47;5036913;28;20445;-75
2021/12/07 03:54:53;;;;;;;3.93;2.50;;;;;;;1.61;100.00;151780.59;5073745;28;20531;-75
2021/12/07 03:57:29;;;;;;;2.57;2.20;;;;;;;1.60;100.00;151778.00;5082452;28;20450;-75
2021/12/07 04:00:09;;;;;;;2.63;2.43;;;;;;;1.60;100.00;151778.00;5052728;28;20869;-75
2021/12/07 04:02:51;;;;;;;4.00;2.47;;;;;;;1.62;100.00;151784.44;5105989;28;20547;-75
2021/12/07 04:05:29;;;;;;;3.17;2.10;;;;;;;1.64;100.00;151788.31;5056646;28;20453;-75
2021/12/07 04:08:06;;;;;;;2.97;2.60;;;;;;;1.67;100.00;151795.97;5046255;28;20463;-75
2021/12/07 04:10:42;;;;;;;3.03;2.07;;;;;;;1.66;100.00;151794.75;5044922;28;20547;-75
2021/12/07 04:13:19;;;;;;;3.27;2.50;;;;;;;1.64;100.00;151788.31;5052233;28;20434;-75
2021/12/07 04:15:57;;;;;;;3.50;2.70;;;;;;;1.63;100.00;151787.03;5037185;28;20448;-75
2021/12/07 04:18:32;;;;;;;4.17;2.20;;;;;;;1.64;100.00;151788.31;5037280;28;20454;-75
2021/12/07 04:21:09;;;;;;;3.63;2.47;;;;;;;1.64;100.00;151788.31;5085470;28;20441;-75
2021/12/07 04:23:44;;;;;;;3.10;2.40;;;;;;;1.65;100.00;151790.84;5052257;28;20555;-75
2021/12/07 04:26:20;;;;;;;3.53;2.30;;;;;;;1.68;100.00;151799.88;5085452;28;20535;-75
2021/12/07 04:28:56;;;;;;;3.10;2.50;;;;;;;1.74;100.00;151815.31;5035946;28;20443;-75
2021/12/07 04:31:33;;;;;;;2.93;2.00;;;;;;;1.74;100.00;151815.31;5084989;28;20462;-75
2021/12/07 04:34:08;;;;;;;3.57;2.43;;;;;;;1.70;100.00;151803.69;5035831;28;20589;-75
2021/12/07 04:36:44;;;;;;;3.23;2.10;;;;;;;1.71;100.00;151806.28;5062772;28;20524;-75
2021/12/07 04:39:19;;;;;;;2.70;1.90;;;;;;;1.73;100.00;151811.41;5055849;28;20553;-75
2021/12/07 04:41:55;;;;;;;1.70;1.40;;;;;;;1.79;100.00;151826.84;5044996;28;20480;-75
2021/12/07 04:44:31;;;;;;;2.73;2.20;;;;;;;1.76;100.00;151819.13;5051200;28;20891;-75
2021/12/07 04:47:15;;;;;;;2.43;2.13;;;;;;;1.75;100.00;151817.84;5069020;28;20440;-75
2021/12/07 04:50:18;;;;;;;2.00;1.70;;;;;;;1.79;100.00;151826.84;5067397;28;20832;-75
2021/12/07 04:58:40;;;;;;;5.00;1.80;;;;;;;1.80;100.00;151830.69;5080475;28;20950;-75
2021/12/07 05:01:15;;;;;;;2.67;2.00;;;;;;;1.81;100.00;151832.00;5063510;28;20480;-75
2021/12/07 05:03:55;;;;;;;2.30;1.90;;;;;;;1.81;100.00;151832.00;5053534;28;20549;-75
2021/12/07 05:06:33;;;;;;;2.53;1.80;;;;;;;1.81;100.00;151833.28;5052647;28;20420;-75
2021/12/07 05:09:28;;;;;;;2.87;1.70;;;;;;;1.83;100.00;151837.13;5065701;28;20445;-75
2021/12/07 05:15:00;;;;;;;2.70;2.27;;;;;;;1.84;100.00;151839.72;5054680;28;20452;-75
2021/12/07 05:17:58;;;;;;;2.93;2.40;;;;;;;1.83;100.00;151837.13;5054582;28;20433;-75
2021/12/07 05:38:11;;;;;;;2.60;1.83;;;;;;;1.83;100.00;151838.41;5041765;28;20444;-75
2021/12/07 05:40:47;;;;;;;2.27;2.07;;;;;;;1.85;100.00;151842.28;5055252;28;20438;-75
2021/12/07 05:43:22;;;;;;;1.70;1.40;;;;;;;1.81;100.00;151832.00;5057766;28;20848;-75
2021/12/07 05:45:58;;;;;;;2.23;1.33;;;;;;;1.82;100.00;151834.56;5067469;28;20458;-75
2021/12/07 05:48:34;;;;;;;5.03;1.60;;;;;;;1.77;100.00;151821.72;5054734;28;20434;-75
2021/12/07 05:51:09;;;;;;;2.93;1.60;;;;;;;1.73;100.00;151812.72;5064212;28;20521;-75
2021/12/07 05:53:46;;;;;;;1.93;1.53;;;;;;;1.73;100.00;151811.41;5069713;28;20441;-75
2021/12/07 05:56:22;;;;;;;2.90;1.77;;;;;;;1.75;100.00;151816.56;5053030;28;20446;-75
2021/12/07 05:58:58;;;;;;;1.83;1.60;;;;;;;1.74;100.00;151815.31;5097798;28;20450;-75
2021/12/07 06:01:35;;;;;;;2.20;1.57;;;;;;;1.73;100.00;151812.72;5082214;28;20434;-75
2021/12/07 06:04:11;;;;;;;5.50;2.30;;;;;;;1.74;100.00;151814.00;5068709;28;20564;-75
2021/12/07 06:06:46;;;;;;;2.43;1.80;;;;;;;1.72;100.00;151808.88;5093535;28;20475;-75
2021/12/07 06:09:23;;;;;;;7.23;1.90;;;;;;;1.69;100.00;151802.47;5065664;28;20454;-75
2021/12/07 06:11:59;;;;;;;3.00;2.17;;;;;;;1.71;100.00;151806.28;5065543;28;20435;-75
2021/12/07 06:14:41;;;;;;;3.90;2.80;;;;;;;1.70;100.00;151803.69;5083109;28;20442;-75
2021/12/07 06:17:17;;;;;;;2.63;1.90;;;;;;;1.72;100.00;151808.88;5034776;28;20443;-75
2021/12/07 06:19:53;;;;;;;4.40;2.10;;;;;;;1.73;100.00;151811.41;5035584;28;20449;-75
2021/12/07 06:22:28;;;;;;;2.90;2.07;;;;;;;1.72;100.00;151810.13;5070316;28;20452;-75
2021/12/07 06:25:07;;;;;;;2.70;1.67;;;;;;;1.72;100.00;151808.88;5063232;28;20462;-75
2021/12/07 06:27:43;;;;;;;3.60;2.10;;;;;;;1.78;100.00;151824.25;5051252;28;20554;-75
2021/12/07 06:30:18;;;;;;;3.50;1.50;;;;;;;1.77;100.00;151822.97;5081101;28;20470;-75
2021/12/07 06:32:54;;;;;;;3.27;2.27;;;;;;;1.78;100.00;151824.25;5070212;28;20450;-75
2021/12/07 06:35:30;;;;;;;4.83;2.10;;;;;;;1.80;100.00;151829.44;5103710;28;20453;-75
2021/12/07 06:38:05;;;;;;;2.80;2.30;;;;;;;1.81;100.00;151832.00;5088364;28;20530;-75
2021/12/07 06:40:42;;;;;;;4.07;2.03;;;;;;;1.81;100.00;151833.28;5060746;28;20528;-75
2021/12/07 06:43:18;;;;;;;3.80;2.30;;;;;;;1.81;100.00;151832.00;5069371;28;20875;-75
2021/12/07 06:45:54;;;;;;;3.90;2.57;;;;;;;1.84;100.00;151839.72;5103742;28;20424;-76
2021/12/07 06:48:30;;;;;;;4.10;3.10;;;;;;;1.84;100.00;151839.72;5041913;28;20446;-75
2021/12/07 06:51:06;;;;;;;3.63;2.27;;;;;;;1.86;100.00;151844.84;5064894;28;20485;-75
2021/12/07 06:53:42;;;;;;;4.13;2.10;;;;;;;1.89;100.00;151852.56;5083365;28;20432;-75
2021/12/07 06:56:18;;;;;;;4.80;3.20;;;;;;;1.88;100.00;151849.97;5055146;28;20447;-75
2021/12/07 06:58:54;;;;;;;3.67;2.90;;;;;;;1.90;100.00;151853.84;5038413;28;20440;-75
2021/12/07 07:01:29;;;;;;;8.57;7.27;;;;;;;1.91;100.00;151856.44;5053192;28;20456;-75
2021/12/07 07:04:07;;;;;;;6.20;4.57;;;;;;;1.91;100.00;151857.69;5081512;28;20542;-75
2021/12/07 07:06:44;;;;;;;5.13;3.50;;;;;;;1.93;100.00;151862.88;5051458;28;20478;-75
2021/12/07 07:09:19;;;;;;;3.20;2.57;;;;;;;1.94;100.00;151865.41;5090659;28;20434;-75
2021/12/07 07:11:56;;;;;;;2.57;2.30;;;;;;;1.95;100.00;151868.00;5107042;28;20858;-75
2021/12/07 07:14:32;;;;;;;2.57;2.27;;;;;;;1.94;100.00;151865.41;5071585;28;20529;-75
2021/12/07 07:17:07;;;;;;;4.57;2.20;;;;;;;1.96;100.00;151870.53;5098090;28;20463;-76
2021/12/07 07:19:43;;;;;;;3.20;2.07;;;;;;;1.97;100.00;151873.13;5039842;28;20443;-75
2021/12/07 07:22:19;;;;;;;3.53;2.10;;;;;;;1.98;100.00;151875.72;5057536;28;20444;-75
2021/12/07 07:24:55;;;;;;;2.43;1.90;;;;;;;2.00;100.00;151879.56;5072827;28;20458;-75
2021/12/07 07:27:32;;;;;;;2.17;1.97;;;;;;;1.99;100.00;151876.97;5049876;28;20486;-75
2021/12/07 07:30:10;;;;;;;3.00;2.10;;;;;;;2.01;100.00;151883.44;5090694;28;20482;-76
2021/12/07 07:32:46;;;;;;;6.13;2.00;;;;;;;2.02;100.00;151885.97;5106138;28;20458;-75
2021/12/07 07:35:22;;;;;;;2.67;2.30;;;;;;;2.03;100.00;151887.25;5090537;28;20448;-76
2021/12/07 07:37:58;;;;;;;4.00;2.07;;;;;;;2.04;100.00;151891.09;5049401;28;20508;-76
2021/12/07 07:40:33;;;;;;;2.40;1.90;;;;;;;2.03;100.00;151887.25;5072979;28;20440;-75
2021/12/07 07:43:10;;;;;;;2.73;2.20;;;;;;;2.00;100.00;151879.56;5071953;28;20452;-75
2021/12/07 07:45:55;;;;;;;3.90;2.60;;;;;;;2.08;100.00;151901.41;5050444;28;20436;-75
2021/12/07 07:48:31;;;;;;;3.27;2.30;;;;;;;2.07;100.00;151897.53;5063182;28;20443;-75
2021/12/07 07:51:06;;;;;;;4.90;2.50;;;;;;;2.03;100.00;151888.56;5071448;28;20496;-75
2021/12/07 07:53:43;;;;;;;3.23;2.60;;;;;;;2.01;100.00;151883.44;5068830;28;20790;-75
2021/12/07 07:56:18;;;;;;;2.60;2.20;;;;;;;2.04;100.00;151889.84;5100837;28;20440;-75
2021/12/07 07:58:56;;;;;;;2.40;2.10;;;;;;;2.03;100.00;151887.25;5054135;28;20456;-75
2021/12/07 08:01:31;;;;;;;3.10;2.40;;;;;;;2.05;100.00;151893.69;5036698;28;20476;-76
2021/12/07 08:04:07;;;;;;;5.10;2.73;;;;;;;2.08;100.00;151900.13;5081763;28;20821;-75
2021/12/07 08:06:42;;;;;;;3.40;2.07;;;;;;;2.10;100.00;151906.53;5098993;28;20442;-76
2021/12/07 08:09:18;;;;;;;5.05;2.95;;;;;;;2.13;100.00;151914.25;5051676;28;20438;-75
2021/12/07 08:11:53;;;;;;;4.20;2.60;;;;;;;2.13;100.00;151914.25;5063158;28;20234;-75
2021/12/07 08:14:30;;;;;;;4.30;2.83;;;;;;;2.13;100.00;151914.25;5064217;28;20431;-76
2021/12/07 08:17:05;;;;;;;7.53;2.13;;;;;;;2.16;100.00;151921.97;5064243;28;20825;-75
2021/12/07 08:19:42;;;;;;;2.10;1.80;;;;;;;2.16;100.00;151921.97;5056258;28;20432;-76
2021/12/07 08:22:18;;;;;;;4.27;2.33;;;;;;;2.19;100.00;151929.72;5069418;28;20436;-76
2021/12/07 08:24:53;;;;;;;3.63;2.27;;;;;;;2.24;100.00;151942.56;5087953;28;20470;-75
2021/12/07 08:27:29;;;;;;;4.00;2.47;;;;;;;2.26;100.00;151947.69;5087106;28;20501;-75
2021/12/07 08:30:10;;;;;;;3.90;2.20;;;;;;;2.30;100.00;151957.94;5101535;28;20476;-76
2021/12/07 08:32:45;;;;;;;5.37;2.27;;;;;;;2.32;100.00;151961.84;5069422;28;20480;-75
2021/12/07 08:35:21;;;;;;;3.10;1.90;;;;;;;2.34;100.00;151968.25;5036187;28;20448;-75
2021/12/07 08:37:57;;;;;;;5.33;2.27;;;;;;;2.39;100.00;151981.13;5036050;28;20489;-75
2021/12/07 08:40:34;;;;;;;2.43;1.87;;;;;;;2.46;100.00;151999.09;5051743;28;20548;-75
2021/12/07 08:43:12;;;;;;;2.23;2.03;;;;;;;2.44;100.00;151993.97;5068166;28;21200;-75
2021/12/07 08:45:49;;;;;;;5.00;2.57;;;;;;;2.49;100.00;152005.53;5049497;28;20755;-75
2021/12/07 08:48:25;;;;;;;4.80;1.90;;;;;;;2.50;100.00;152006.84;5068896;28;20452;-76
2021/12/07 08:51:01;;;;;;;6.30;2.17;;;;;;;2.52;100.00;152011.97;5104788;28;20545;-75
2021/12/07 08:53:42;;;;;;;7.80;2.33;;;;;;;2.54;100.00;152018.44;5071456;28;20417;-75
2021/12/07 09:02:06;;;;;;;5.40;2.70;;;;;;;2.66;100.00;152048.00;5082628;28;20445;-75
2021/12/07 09:04:41;;;;;;;8.80;3.23;;;;;;;2.74;100.00;152068.56;5070823;28;20876;-76
2021/12/07 09:07:17;;;;;;;6.70;2.47;;;;;;;2.74;100.00;152068.56;5097275;28;20440;-75
2021/12/07 09:09:53;;;;;;;4.70;2.17;;;;;;;2.77;100.00;152076.28;5051278;28;20439;-75
2021/12/07 09:12:29;;;;;;;6.03;2.53;;;;;;;2.87;100.00;152102.00;5051080;28;20804;-76
2021/12/07 09:15:06;;;;;;;6.53;2.33;;;;;;;2.88;100.00;152105.91;5082388;28;20459;-75
2021/12/07 09:17:43;;;;;;;4.90;2.20;;;;;;;2.92;100.00;152114.88;5085345;28;20982;-76
2021/12/07 09:20:19;;;;;;;6.13;2.30;;;;;;;2.91;100.00;152112.34;5073855;28;20448;-76
2021/12/07 09:22:54;;;;;;;3.40;2.20;;;;;;;2.91;100.00;152113.56;5084283;28;20452;-75
2021/12/07 09:25:30;;;;;;;3.43;2.40;;;;;;;2.95;100.00;152122.59;5053105;28;20470;-76
2021/12/07 09:28:06;;;;;;;4.03;2.50;;;;;;;3.02;100.00;152141.91;5051692;28;20444;-75
2021/12/07 09:30:42;;;;;;;4.13;2.33;;;;;;;3.10;100.00;152159.94;5054511;28;20508;-76
2021/12/07 09:33:20;;;;;;;6.63;2.10;;;;;;;3.20;100.00;152186.97;5090872;28;20479;-75
2021/12/07 09:35:57;;;;;;;4.17;2.10;;;;;;;3.29;100.00;152210.09;5035378;28;20499;-76
2021/12/07 09:38:33;;;;;;;2.80;1.77;;;;;;;3.40;100.00;152237.13;5050512;28;20494;-76
2021/12/07 09:41:10;;;;;;;4.83;2.40;;;;;;;3.44;100.00;152247.44;5056537;28;20444;-75
2021/12/07 09:43:47;;;;;;;3.67;2.00;;;;;;;3.47;100.00;152256.44;5068884;28;20444;-76
2021/12/07 09:46:23;;;;;;;3.87;2.30;;;;;;;3.45;100.00;152251.28;5051670;28;20488;-75
2021/12/07 09:49:00;;;;;;;7.00;1.50;;;;;;;3.49;100.00;152260.31;5045855;28;20434;-75
2021/12/07 09:51:37;;;;;;;3.00;1.90;;;;;;;3.54;100.00;152273.19;5035055;28;20461;-76
2021/12/07 09:54:13;;;;;;;4.17;2.07;;;;;;;3.63;100.00;152297.63;5064761;28;20952;-76
2021/12/07 09:56:48;;;;;;;7.00;2.30;;;;;;;3.68;100.00;152310.50;5059229;28;20798;-76
2021/12/07 09:59:24;;;;;;;2.10;1.43;;;;;;;3.71;98.17;152315.69;5083527;28;20433;-76
2021/12/07 10:02:03;;;;;;;2.83;1.40;;;;;;;3.66;97.85;152305.34;5067201;28;20945;-76
2021/12/07 10:04:40;;;;;;;3.27;2.07;;;;;;;3.61;100.00;152292.47;5094181;28;20469;-76
2021/12/07 10:07:16;;;;;;;4.23;2.00;;;;;;;3.56;100.00;152278.31;5051093;28;20456;-76
2021/12/07 10:09:52;;;;;;;1.93;1.17;;;;;;;3.56;100.00;152278.31;5053176;28;20478;-75
2021/12/07 10:12:28;;;;;;;2.83;1.83;;;;;;;3.57;100.00;152282.16;5057747;28;20467;-75
2021/12/07 10:15:06;;;;;;;4.60;1.90;;;;;;;3.68;98.63;152310.50;5070381;28;20429;-75
2021/12/07 10:17:42;;;;;;;3.40;1.87;;;;;;;3.68;98.59;152309.19;5070580;28;20449;-74
2021/12/07 10:20:32;;;;;;;3.00;1.53;;;;;;;3.69;99.40;152313.09;5104151;28;20448;-74
2021/12/07 10:23:25;;;;;;;3.63;1.73;;;;;;;3.75;98.73;152325.94;5039994;28;20438;-74
2021/12/07 10:26:05;;;;;;;4.23;1.80;;;;;;;3.84;98.99;152350.41;5092734;28;20485;-75
2021/12/07 10:28:43;;;;;;;3.40;1.50;;;;;;;3.86;98.54;152354.28;5073486;28;20437;-77
2021/12/07 10:31:22;;;;;;;2.30;1.17;;;;;;;3.91;97.15;152368.47;5073971;28;20958;-76
2021/12/07 10:34:00;;;;;;;2.53;1.70;;;;;;;3.92;94.83;152369.75;5058368;28;20538;-76
2021/12/07 10:36:41;;;;;;;2.13;1.63;;;;;;;3.95;96.29;152377.44;5071694;28;20443;-76
2021/12/07 10:39:21;;;;;;;4.23;1.80;;;;;;;3.95;98.35;152377.44;5048415;28;20446;-76
2021/12/07 10:41:59;;;;;;;2.50;1.20;;;;;;;3.96;97.58;152380.03;5057362;28;20480;-76
2021/12/07 10:44:36;;;;;;;5.70;1.53;;;;;;;3.99;97.53;152389.06;5066598;28;20437;-76
2021/12/07 10:47:13;;;;;;;6.67;1.97;;;;;;;4.00;97.55;152390.31;5095077;28;20808;-75
2021/12/07 10:49:51;;;;;;;3.20;1.40;;;;;;;4.01;96.28;152394.19;5063019;28;20441;-77
2021/12/07 10:52:29;;;;;;;3.30;1.60;;;;;;;4.02;95.51;152395.50;5058366;28;20506;-76
2021/12/07 10:55:09;;;;;;;2.77;1.60;;;;;;;3.99;94.03;152387.75;5071533;28;20438;-76
2021/12/07 10:57:46;;;;;;;3.03;1.80;;;;;;;3.94;94.11;152374.88;5069803;28;20457;-76
2021/12/07 11:00:24;;;;;;;2.67;1.33;;;;;;;3.89;93.63;152362.00;5052639;28;20442;-76
2021/12/07 11:03:03;;;;;;;3.60;1.60;;;;;;;3.89;94.73;152362.00;5089269;28;20948;-76
2021/12/07 11:05:41;;;;;;;2.70;1.70;;;;;;;3.85;93.97;152351.69;5090629;28;20572;-77
2021/12/07 11:08:19;;;;;;;2.73;1.40;;;;;;;3.82;94.62;152343.97;5065197;28;20446;-76
2021/12/07 11:10:55;;;;;;;3.67;1.43;;;;;;;3.78;93.97;152333.69;5050754;28;20442;-76
2021/12/07 11:13:36;;;;;;;2.40;1.47;;;;;;;3.74;95.64;152323.34;5093528;28;20533;-76
2021/12/07 11:16:13;;;;;;;2.37;1.47;;;;;;;3.69;94.79;152313.09;5054058;28;20450;-76
2021/12/07 11:18:52;;;;;;;2.13;1.23;;;;;;;3.69;95.41;152311.78;5063688;28;20512;-76
2021/12/07 11:21:31;;;;;;;3.60;1.70;;;;;;;3.68;95.11;152310.50;5065101;28;20447;-75
2021/12/07 11:24:08;;;;;;;1.93;1.47;;;;;;;3.73;97.15;152322.13;5075551;28;20438;-75
2021/12/07 11:29:44;;;;;;;4.97;1.90;;;;;;;3.99;91.92;152389.06;5071307;28;20979;-76
2021/12/07 11:32:20;;;;;;;5.90;1.43;;;;;;;4.10;90.19;152416.09;5049319;28;20961;-76
2021/12/07 11:34:56;;;;;;;4.73;1.13;;;;;;;4.26;88.63;152458.56;5062782;28;20528;-76
2021/12/07 11:37:35;;;;;;;2.87;1.37;;;;;;;4.31;88.68;152470.19;5062943;28;20450;-76
2021/12/07 11:40:13;;;;;;;5.67;2.00;;;;;;;4.43;89.86;152501.09;5105920;28;20468;-76
2021/12/07 11:42:49;;;;;;;2.13;1.27;;;;;;;4.43;87.58;152501.09;5053583;28;20801;-76
2021/12/07 11:45:33;;;;;;;2.53;1.40;;;;;;;4.42;90.42;152498.50;5069522;28;20948;-75
2021/12/07 11:48:09;;;;;;;2.50;1.17;;;;;;;4.39;88.87;152490.81;5080479;28;20469;-76
2021/12/07 11:50:47;;;;;;;2.07;1.40;;;;;;;4.31;90.66;152470.19;5070875;28;20468;-76
2021/12/07 11:53:25;;;;;;;2.17;1.60;;;;;;;4.25;90.04;152454.72;5072910;28;20441;-76
2021/12/07 11:56:02;;;;;;;2.80;1.77;;;;;;;4.20;89.69;152441.84;5044027;28;20801;-76
2021/12/07 11:58:38;;;;;;;2.33;1.67;;;;;;;4.18;90.91;152436.72;5085802;28;20933;-75
2021/12/07 12:01:13;;;;;;;3.10;1.50;;;;;;;4.11;92.15;152419.94;5053040;28;20457;-76
2021/12/07 12:03:49;;;;;;;1.50;1.30;;;;;;;4.09;91.11;152413.50;5083111;28;20452;-76
2021/12/07 12:06:25;;;;;;;6.37;1.83;;;;;;;4.12;92.50;152422.53;5086566;28;20477;-76
2021/12/07 12:09:01;;;;;;;3.30;1.63;;;;;;;4.06;91.48;152407.06;5085582;28;20452;-76
2021/12/07 12:11:42;;;;;;;3.53;1.50;;;;;;;4.00;91.90;152390.31;5051671;28;20462;-76
2021/12/07 12:14:34;;;;;;;2.10;1.13;;;;;;;3.98;91.89;152386.47;5036345;28;20430;-76
2021/12/07 12:17:13;;;;;;;3.23;1.20;;;;;;;3.95;92.58;152377.44;5044742;28;20450;-76
2021/12/07 12:20:06;;;;;;;4.43;1.40;;;;;;;3.96;91.17;152380.03;5071108;28;20454;-76
2021/12/07 12:22:44;;;;;;;2.17;1.40;;;;;;;3.99;91.48;152389.06;5070479;28;20447;-76
2021/12/07 12:25:22;;;;;;;3.87;1.40;;;;;;;4.04;91.97;152400.63;5052935;28;20850;-76
2021/12/07 12:27:59;;;;;;;2.70;1.50;;;;;;;4.09;90.68;152413.50;5069763;28;20446;-76
2021/12/07 12:30:37;;;;;;;1.63;1.37;;;;;;;4.11;89.22;152418.66;5082864;28;20488;-76
2021/12/07 12:33:14;;;;;;;2.03;1.20;;;;;;;4.18;90.93;152436.72;5066792;28;20521;-76
2021/12/07 12:35:51;;;;;;;3.73;1.30;;;;;;;4.12;91.06;152422.53;5040217;28;20452;-76
2021/12/07 12:38:31;;;;;;;1.37;0.80;;;;;;;4.14;90.54;152427.69;5054520;28;20446;-76
2021/12/07 12:41:09;;;;;;;3.00;1.10;;;;;;;4.11;90.39;152419.94;5062897;28;20442;-76
2021/12/07 12:43:51;;;;;;;1.87;1.27;;;;;;;4.12;92.63;152421.25;5089540;28;20441;-76
2021/12/07 12:46:29;;;;;;;2.97;1.60;;;;;;;4.16;89.07;152431.53;5098441;28;20490;-76
2021/12/07 12:49:10;;;;;;;1.83;1.30;;;;;;;4.21;91.05;152444.41;5103978;28;20441;-76
2021/12/07 12:51:48;;;;;;;1.17;1.00;;;;;;;4.19;89.13;152439.25;5084620;28;20533;-76
2021/12/07 12:54:23;;;;;;;1.93;1.23;;;;;;;4.21;88.74;152445.69;5052406;28;20460;-76
2021/12/07 12:57:08;;;;;;;3.20;1.90;;;;;;;4.23;88.55;152450.88;5068425;28;20438;-76
2021/12/07 12:59:47;;;;;;;4.33;1.40;;;;;;;4.26;88.73;152458.56;5035843;28;20536;-76
2021/12/07 13:02:23;;;;;;;2.33;1.57;;;;;;;4.23;88.66;152449.59;5051269;28;20453;-76
2021/12/07 13:05:04;;;;;;;3.87;1.77;;;;;;;4.18;90.16;152436.72;5065856;28;20440;-76
2021/12/07 13:07:40;;;;;;;3.00;1.30;;;;;;;4.12;90.16;152421.25;5045944;28;20434;-76
2021/12/07 13:10:15;;;;;;;2.20;1.50;;;;;;;4.09;89.02;152413.50;5052202;28;20846;-76
2021/12/07 13:12:51;;;;;;;3.57;1.60;;;;;;;4.05;89.59;152404.47;5085640;28;20818;-76
2021/12/07 13:15:35;;;;;;;1.80;1.50;;;;;;;4.09;88.18;152413.50;5035803;28;20435;-76
2021/12/07 13:18:20;;;;;;;3.90;1.20;;;;;;;4.20;88.78;152441.84;5067310;28;20431;-76
2021/12/07 13:20:55;;;;;;;2.40;1.60;;;;;;;4.26;91.91;152457.31;5050298;28;20533;-80
2021/12/07 13:23:32;;;;;;;2.13;1.13;;;;;;;4.29;90.24;152465.00;5060871;28;20785;-75
2021/12/07 13:26:07;;;;;;;2.57;1.33;;;;;;;4.30;91.14;152467.59;5103779;28;20473;-76
2021/12/07 13:28:43;;;;;;;2.60;1.50;;;;;;;4.27;88.80;152459.88;5060251;28;20458;-76
2021/12/07 13:31:21;;;;;;;3.03;1.07;;;;;;;4.26;87.11;152457.31;5070362;28;20481;-76
2021/12/07 13:33:58;;;;;;;2.33;1.27;;;;;;;4.28;87.10;152462.47;5088767;28;20478;-76
2021/12/07 13:36:56;;;;;;;3.60;2.03;;;;;;;4.20;90.95;152443.16;5054548;28;20762;-75